createdAt,value
2023-12-10T00:01:03.714Z,0.96
2023-12-10T00:03:30.560Z,0.69
2023-12-10T00:06:04.412Z,0.79
2023-12-10T00:08:38.011Z,0.79
2023-12-10T00:11:04.804Z,0.87
2023-12-10T00:13:31.327Z,0.84
2023-12-10T00:15:57.924Z,0.65
2023-12-10T00:18:24.698Z,0.96
2023-12-10T00:20:51.333Z,0.80
2023-12-10T00:23:17.870Z,0.87
2023-12-10T00:25:44.990Z,0.90
2023-12-10T00:28:11.641Z,0.92
2023-12-10T00:30:38.870Z,0.97
2023-12-10T00:33:05.524Z,0.98
2023-12-10T00:35:32.170Z,1.09
2023-12-10T00:37:58.747Z,1.08
2023-12-10T00:40:25.312Z,0.95
2023-12-10T00:42:52.491Z,1.03
2023-12-10T00:45:19.212Z,0.95
2023-12-10T00:47:45.834Z,0.74
2023-12-10T00:50:12.733Z,1.03
2023-12-10T00:52:39.743Z,1.07
2023-12-10T00:55:06.517Z,1.11
2023-12-10T00:57:33.941Z,0.93
2023-12-10T01:00:00.588Z,1.09
2023-12-10T01:02:27.517Z,0.96
2023-12-10T01:04:54.760Z,0.88
2023-12-10T01:07:21.363Z,0.93
2023-12-10T01:09:48.029Z,1.08
2023-12-10T01:12:14.590Z,1.12
2023-12-10T01:14:41.173Z,1.08
2023-12-10T01:17:09.342Z,1.13
2023-12-10T01:19:36.204Z,1.09
2023-12-10T01:22:04.654Z,1.15
2023-12-10T01:24:31.431Z,1.18
2023-12-10T01:26:57.976Z,1.17
2023-12-10T01:29:26.890Z,1.17
2023-12-10T01:31:53.470Z,1.17
2023-12-10T01:34:20.249Z,1.15
2023-12-10T01:36:47.030Z,1.25
2023-12-10T01:39:16.352Z,1.23
2023-12-10T01:41:43.046Z,1.25
2023-12-10T01:44:11.142Z,1.21
2023-12-10T01:46:37.942Z,1.06
2023-12-10T01:49:09.163Z,1.27
2023-12-10T01:51:37.896Z,1.36
2023-12-10T01:54:04.931Z,1.29
2023-12-10T01:56:31.822Z,1.34
2023-12-10T01:58:59.604Z,1.25
2023-12-10T02:01:27.314Z,1.17
2023-12-10T02:03:54.789Z,1.20
2023-12-10T02:06:23.447Z,1.25
2023-12-10T02:08:50.034Z,1.28
2023-12-10T02:11:17.238Z,1.24
2023-12-10T02:13:43.858Z,1.29
2023-12-10T02:16:10.465Z,1.36
2023-12-10T02:18:37.210Z,1.22
2023-12-10T02:21:04.108Z,1.24
2023-12-10T02:23:47.609Z,1.28
2023-12-10T02:26:14.247Z,1.30
2023-12-10T02:28:40.922Z,1.31
2023-12-10T02:31:08.097Z,1.14
2023-12-10T02:33:34.979Z,1.24
2023-12-10T02:36:01.674Z,1.26
2023-12-10T02:38:28.348Z,1.20
2023-12-10T02:40:55.495Z,1.25
2023-12-10T02:43:22.370Z,1.23
2023-12-10T02:45:49.113Z,1.27
2023-12-10T02:48:16.008Z,0.86
2023-12-10T02:50:42.706Z,0.98
2023-12-10T02:53:09.497Z,0.92
2023-12-10T02:55:36.048Z,0.74
2023-12-10T02:58:05.582Z,0.97
2023-12-10T03:00:32.831Z,1.04
2023-12-10T03:02:59.770Z,1.13
2023-12-10T03:05:26.413Z,1.14
2023-12-10T03:07:53.630Z,1.10
2023-12-10T03:10:21.229Z,1.19
2023-12-10T03:12:47.886Z,1.16
2023-12-10T03:15:14.555Z,1.22
2023-12-10T03:17:41.221Z,0.99
2023-12-10T03:20:10.549Z,1.19
2023-12-10T03:22:37.235Z,1.20
2023-12-10T03:25:04.832Z,1.20
2023-12-10T03:27:31.400Z,1.14
2023-12-10T03:29:58.206Z,1.22
2023-12-10T03:32:24.849Z,1.25
2023-12-10T03:34:51.478Z,1.23
2023-12-10T03:37:18.108Z,1.18
2023-12-10T03:39:44.743Z,1.43
2023-12-10T03:42:11.391Z,1.38
2023-12-10T03:44:37.927Z,1.40
2023-12-10T03:47:04.663Z,1.41
2023-12-10T03:49:31.392Z,1.45
2023-12-10T03:51:58.279Z,1.39
2023-12-10T03:54:25.518Z,1.44
2023-12-10T03:56:52.062Z,1.42
2023-12-10T03:59:18.677Z,1.35
2023-12-10T04:01:45.305Z,1.38
2023-12-10T04:04:15.002Z,1.37
2023-12-10T04:06:42.270Z,1.18
2023-12-10T04:09:09.543Z,1.22
2023-12-10T04:11:37.075Z,1.09
2023-12-10T04:14:04.517Z,1.22
2023-12-10T04:16:31.550Z,1.30
2023-12-10T04:18:58.543Z,1.22
2023-12-10T04:21:25.278Z,1.43
2023-12-10T04:23:52.109Z,1.45
2023-12-10T04:26:18.885Z,1.36
2023-12-10T04:28:45.928Z,1.02
2023-12-10T04:31:12.727Z,1.43
2023-12-10T04:33:39.516Z,1.20
2023-12-10T04:36:06.613Z,1.26
2023-12-10T04:38:33.452Z,1.19
2023-12-10T04:41:00.091Z,1.22
2023-12-10T04:43:26.669Z,1.11
2023-12-10T04:45:53.331Z,1.35
2023-12-10T04:48:20.094Z,1.25
2023-12-10T04:50:46.765Z,1.12
2023-12-10T04:53:13.290Z,1.45
2023-12-10T04:55:40.012Z,1.50
2023-12-10T04:58:06.549Z,1.22
2023-12-10T05:00:33.127Z,1.44
2023-12-10T05:02:59.739Z,1.47
2023-12-10T05:05:26.340Z,1.31
2023-12-10T05:07:52.908Z,1.46
2023-12-10T05:10:19.805Z,1.41
2023-12-10T05:12:46.882Z,1.47
2023-12-10T05:15:13.570Z,1.32
2023-12-10T05:17:40.350Z,1.21
2023-12-10T05:20:08.942Z,1.32
2023-12-10T05:22:35.607Z,1.39
2023-12-10T05:25:02.400Z,1.25
2023-12-10T05:27:33.694Z,1.32
2023-12-10T05:30:01.068Z,1.51
2023-12-10T05:32:29.166Z,1.55
2023-12-10T05:34:56.003Z,1.60
2023-12-10T05:37:22.770Z,1.52
2023-12-10T05:39:49.340Z,1.39
2023-12-10T05:42:15.963Z,1.58
2023-12-10T05:44:42.537Z,1.40
2023-12-10T05:47:09.047Z,1.56
2023-12-10T05:49:35.634Z,1.55
2023-12-10T05:52:02.269Z,1.38
2023-12-10T05:54:28.970Z,1.68
2023-12-10T05:56:55.814Z,1.66
2023-12-10T05:59:22.320Z,1.47
2023-12-10T06:01:49.052Z,1.70
2023-12-10T06:04:15.734Z,1.62
2023-12-10T06:06:42.366Z,1.58
2023-12-10T06:09:10.546Z,1.62
2023-12-10T06:11:37.135Z,1.53
2023-12-10T06:14:03.699Z,1.43
2023-12-10T06:16:30.461Z,1.56
2023-12-10T06:18:57.167Z,1.39
2023-12-10T06:21:23.896Z,1.57
2023-12-10T06:23:50.485Z,1.56
2023-12-10T06:26:16.986Z,1.49
2023-12-10T06:28:43.578Z,1.60
2023-12-10T06:31:10.730Z,1.57
2023-12-10T06:33:37.596Z,1.60
2023-12-10T06:36:04.848Z,1.41
2023-12-10T06:38:31.401Z,1.74
2023-12-10T06:40:57.960Z,1.78
2023-12-10T06:43:25.858Z,1.74
2023-12-10T06:45:52.875Z,1.42
2023-12-10T06:48:19.743Z,1.62
2023-12-10T06:50:46.359Z,1.57
2023-12-10T06:53:12.889Z,1.64
2023-12-10T06:55:39.437Z,1.40
2023-12-10T06:58:05.968Z,1.82
2023-12-10T07:00:32.660Z,1.80
2023-12-10T07:02:59.293Z,1.79
2023-12-10T07:05:25.881Z,1.70
2023-12-10T07:07:52.437Z,1.95
2023-12-10T07:10:18.982Z,1.96
2023-12-10T07:12:45.622Z,1.92
2023-12-10T07:15:12.294Z,1.73
2023-12-10T07:17:39.014Z,1.79
2023-12-10T07:20:06.380Z,1.89
2023-12-10T07:22:33.223Z,1.80
2023-12-10T07:25:00.434Z,1.88
2023-12-10T07:27:27.101Z,1.79
2023-12-10T07:29:53.712Z,1.92
2023-12-10T07:32:20.238Z,1.87
2023-12-10T07:34:46.821Z,1.63
2023-12-10T07:37:13.426Z,2.13
2023-12-10T07:39:40.421Z,1.64
2023-12-10T07:42:07.155Z,2.08
2023-12-10T07:44:34.525Z,2.18
2023-12-10T07:47:01.307Z,2.25
2023-12-10T07:49:28.065Z,2.23
2023-12-10T07:51:54.884Z,2.18
2023-12-10T07:54:21.664Z,2.26
2023-12-10T07:56:48.232Z,2.32
2023-12-10T07:59:14.834Z,2.44
2023-12-10T08:01:41.649Z,2.59
2023-12-10T08:04:08.314Z,2.58
2023-12-10T08:06:35.123Z,2.62
2023-12-10T08:09:05.502Z,2.54
2023-12-10T08:11:32.823Z,2.50
2023-12-10T08:14:00.506Z,2.66
2023-12-10T08:16:27.061Z,2.80
2023-12-10T08:18:53.663Z,2.71
2023-12-10T08:21:20.248Z,2.70
2023-12-10T08:23:46.937Z,2.78
2023-12-10T08:26:13.435Z,2.79
2023-12-10T08:28:40.030Z,2.81
2023-12-10T08:31:06.721Z,2.91
2023-12-10T08:33:33.396Z,2.86
2023-12-10T08:35:59.978Z,3.05
2023-12-10T08:38:26.484Z,3.06
2023-12-10T08:40:53.132Z,3.11
2023-12-10T08:43:21.659Z,3.11
2023-12-10T08:45:48.311Z,3.19
2023-12-10T08:48:15.567Z,3.18
2023-12-10T08:50:42.303Z,3.27
2023-12-10T08:53:08.853Z,3.03
2023-12-10T08:55:35.409Z,3.20
2023-12-10T08:58:01.972Z,3.30
2023-12-10T09:00:28.563Z,3.30
2023-12-10T09:02:55.172Z,3.35
2023-12-10T09:05:22.457Z,3.31
2023-12-10T09:07:49.049Z,3.41
2023-12-10T09:10:15.820Z,3.39
2023-12-10T09:12:42.955Z,3.16
2023-12-10T09:15:10.855Z,3.38
2023-12-10T09:17:37.472Z,3.39
2023-12-10T09:20:05.563Z,3.47
2023-12-10T09:22:32.345Z,3.50
2023-12-10T09:24:59.034Z,3.40
2023-12-10T09:27:25.599Z,3.56
2023-12-10T09:29:53.068Z,3.58
2023-12-10T09:32:21.901Z,3.55
2023-12-10T09:34:48.631Z,3.76
2023-12-10T09:37:15.541Z,3.92
2023-12-10T09:39:42.412Z,3.88
2023-12-10T09:42:09.058Z,3.64
2023-12-10T09:44:35.576Z,3.76
2023-12-10T09:47:02.601Z,3.90
2023-12-10T09:49:30.665Z,3.89
2023-12-10T09:51:57.448Z,3.79
2023-12-10T09:54:27.512Z,3.93
2023-12-10T09:56:56.013Z,3.97
2023-12-10T09:59:22.561Z,3.97
2023-12-10T10:01:54.528Z,4.10
2023-12-10T10:04:21.415Z,3.87
2023-12-10T10:06:48.126Z,3.91
2023-12-10T10:09:24.797Z,3.65
2023-12-10T10:11:58.969Z,3.68
2023-12-10T10:14:25.546Z,3.54
2023-12-10T10:16:52.135Z,3.35
2023-12-10T10:19:18.991Z,3.37
2023-12-10T10:21:46.229Z,3.72
2023-12-10T10:24:14.146Z,3.56
2023-12-10T10:26:41.724Z,3.30
2023-12-10T10:29:09.137Z,3.26
2023-12-10T10:31:35.955Z,3.37
2023-12-10T10:34:07.315Z,3.33
2023-12-10T10:36:34.228Z,3.21
2023-12-10T10:39:01.066Z,3.02
2023-12-10T10:41:30.113Z,3.13
2023-12-10T10:44:00.019Z,3.10
2023-12-10T10:46:27.231Z,3.04
2023-12-10T10:48:54.119Z,3.23
2023-12-10T10:51:26.602Z,3.30
2023-12-10T10:53:56.017Z,3.08
2023-12-10T10:56:23.495Z,2.79
2023-12-10T10:58:50.090Z,2.51
2023-12-10T11:01:43.105Z,2.43
2023-12-10T11:04:14.267Z,2.26
2023-12-10T11:06:42.101Z,1.94
2023-12-10T11:09:09.919Z,2.01
2023-12-10T11:11:40.741Z,1.91
2023-12-10T11:14:20.536Z,2.03
2023-12-10T11:16:51.092Z,2.07
2023-12-10T11:19:19.724Z,1.96
2023-12-10T11:21:46.427Z,2.11
2023-12-10T11:24:13.488Z,2.07
2023-12-10T11:26:40.244Z,2.22
2023-12-10T11:29:07.487Z,2.16
2023-12-10T11:31:35.819Z,2.13
2023-12-10T11:34:02.986Z,2.02
2023-12-10T11:36:36.611Z,2.03
2023-12-10T11:39:05.367Z,1.89
2023-12-10T11:41:32.550Z,1.86
2023-12-10T11:43:59.245Z,2.01
2023-12-10T11:46:31.456Z,1.96
2023-12-10T11:49:01.977Z,1.95
2023-12-10T11:51:28.639Z,1.87
2023-12-10T11:53:55.774Z,1.61
2023-12-10T11:56:22.715Z,1.52
2023-12-10T11:58:49.290Z,1.35
2023-12-10T12:01:17.969Z,1.07
2023-12-10T12:03:45.123Z,1.42
2023-12-10T12:06:11.899Z,1.42
2023-12-10T12:08:38.531Z,1.40
2023-12-10T12:11:05.264Z,1.37
2023-12-10T12:13:31.859Z,1.39
2023-12-10T12:15:58.550Z,1.43
2023-12-10T12:18:26.744Z,1.50
2023-12-10T12:20:53.619Z,1.61
2023-12-10T12:23:20.198Z,1.51
2023-12-10T12:25:47.439Z,1.47
2023-12-10T12:28:14.677Z,1.40
2023-12-10T12:30:41.410Z,1.37
2023-12-10T12:33:08.217Z,1.36
2023-12-10T12:35:34.903Z,1.34
2023-12-10T12:38:01.483Z,1.31
2023-12-10T12:40:28.118Z,1.39
2023-12-10T12:42:54.780Z,1.60
2023-12-10T12:45:21.804Z,1.72
2023-12-10T12:47:49.924Z,1.77
2023-12-10T12:50:17.620Z,1.70
2023-12-10T12:52:44.216Z,1.59
2023-12-10T12:55:10.851Z,1.68
2023-12-10T12:57:38.114Z,1.61
2023-12-10T13:00:06.689Z,1.52
2023-12-10T13:02:33.680Z,1.46
2023-12-10T13:05:00.560Z,1.40
2023-12-10T13:07:27.429Z,1.21
2023-12-10T13:09:54.214Z,1.50
2023-12-10T13:12:20.830Z,1.23
2023-12-10T13:14:47.926Z,1.48
2023-12-10T13:17:14.490Z,1.54
2023-12-10T13:19:41.824Z,1.61
2023-12-10T13:22:08.614Z,1.62
2023-12-10T13:24:35.330Z,1.68
2023-12-10T13:27:01.926Z,1.69
2023-12-10T13:29:28.510Z,1.74
2023-12-10T13:31:55.287Z,1.52
2023-12-10T13:34:22.236Z,1.66
2023-12-10T13:36:48.904Z,1.46
2023-12-10T13:39:15.417Z,1.57
2023-12-10T13:41:42.036Z,1.65
2023-12-10T13:44:08.558Z,1.64
2023-12-10T13:46:35.130Z,1.49
2023-12-10T13:49:02.645Z,1.50
2023-12-10T13:51:29.298Z,1.47
2023-12-10T13:53:55.969Z,1.15
2023-12-10T13:56:22.517Z,1.65
2023-12-10T13:58:49.071Z,1.67
2023-12-10T14:01:16.988Z,1.94
2023-12-10T14:03:43.835Z,2.07
2023-12-10T14:06:10.434Z,2.13
2023-12-10T14:08:37.019Z,2.03
2023-12-10T14:11:03.689Z,2.02
2023-12-10T14:13:30.236Z,1.80
2023-12-10T14:15:56.897Z,1.73
2023-12-10T14:18:23.990Z,1.64
2023-12-10T14:20:50.745Z,1.57
2023-12-10T14:23:17.293Z,1.56
2023-12-10T14:25:45.014Z,1.55
2023-12-10T14:28:12.490Z,1.49
2023-12-10T14:30:39.763Z,1.59
2023-12-10T14:33:06.687Z,1.59
2023-12-10T14:35:33.399Z,1.48
2023-12-10T14:37:59.975Z,1.60
2023-12-10T14:40:26.618Z,1.69
2023-12-10T14:42:53.274Z,1.75
2023-12-10T14:45:19.957Z,1.70
2023-12-10T14:47:46.778Z,1.70
2023-12-10T14:50:13.418Z,1.74
2023-12-10T14:52:39.965Z,1.68
2023-12-10T14:55:07.017Z,1.66
2023-12-10T14:57:33.787Z,1.63
2023-12-10T15:00:00.594Z,1.61
2023-12-10T15:02:27.217Z,1.51
2023-12-10T15:04:53.763Z,1.36
2023-12-10T15:07:20.383Z,1.13
2023-12-10T15:09:47.544Z,1.06
2023-12-10T15:12:14.330Z,1.01
2023-12-10T15:14:41.035Z,1.09
2023-12-10T15:17:08.564Z,1.15
2023-12-10T15:19:43.448Z,1.07
2023-12-10T15:22:12.429Z,1.32
2023-12-10T15:24:39.268Z,1.16
2023-12-10T15:27:05.857Z,1.24
2023-12-10T15:29:32.403Z,1.04
2023-12-10T15:31:58.989Z,0.82
2023-12-10T15:34:30.463Z,1.13
2023-12-10T15:36:57.554Z,1.12
2023-12-10T15:39:24.808Z,1.04
2023-12-10T15:41:51.476Z,1.01
2023-12-10T15:44:18.056Z,0.90
2023-12-10T15:46:45.092Z,0.89
2023-12-10T15:49:11.738Z,0.82
2023-12-10T15:51:38.488Z,0.99
2023-12-10T15:54:05.493Z,1.02
2023-12-10T15:56:32.099Z,0.96
2023-12-10T15:58:58.651Z,0.97
2023-12-10T16:01:26.114Z,1.11
2023-12-10T16:03:52.897Z,1.14
2023-12-10T16:06:19.727Z,1.10
2023-12-10T16:08:46.410Z,1.04
2023-12-10T16:11:13.021Z,0.97
2023-12-10T16:13:39.800Z,0.97
2023-12-10T16:16:06.745Z,0.92
2023-12-10T16:18:33.436Z,0.83
2023-12-10T16:21:02.441Z,0.77
2023-12-10T16:23:29.663Z,0.75
2023-12-10T16:25:56.442Z,0.70
2023-12-10T16:28:23.004Z,0.62
2023-12-10T16:30:49.665Z,0.48
2023-12-10T16:33:16.296Z,0.47
2023-12-10T16:35:42.795Z,0.52
2023-12-10T16:38:09.314Z,0.55
2023-12-10T16:40:35.839Z,0.43
2023-12-10T16:43:04.282Z,0.41
2023-12-10T16:45:30.940Z,0.38
2023-12-10T16:47:57.577Z,0.32
2023-12-10T16:50:24.210Z,0.22
2023-12-10T16:52:50.778Z,0.18
2023-12-10T16:55:17.392Z,0.03
2023-12-10T16:57:44.544Z,0.34
2023-12-10T17:00:12.972Z,0.41
2023-12-10T17:02:39.752Z,0.39
2023-12-10T17:05:06.781Z,0.44
2023-12-10T17:07:34.139Z,0.49
2023-12-10T17:10:01.091Z,0.41
2023-12-10T17:12:27.726Z,0.58
2023-12-10T17:14:54.324Z,0.68
2023-12-10T17:17:20.841Z,0.70
2023-12-10T17:19:47.566Z,0.80
2023-12-10T17:22:14.235Z,0.82
2023-12-10T17:24:41.794Z,0.72
2023-12-10T17:27:08.430Z,0.56
2023-12-10T17:29:35.005Z,0.57
2023-12-10T17:32:01.551Z,0.70
2023-12-10T17:34:28.074Z,0.83
2023-12-10T17:36:54.965Z,0.89
2023-12-10T17:39:21.485Z,0.93
2023-12-10T17:41:48.163Z,0.90
2023-12-10T17:44:17.970Z,0.94
2023-12-10T17:46:44.542Z,0.87
2023-12-10T17:49:11.337Z,0.71
2023-12-10T17:51:38.204Z,0.53
2023-12-10T17:54:07.310Z,0.34
2023-12-10T17:56:33.937Z,0.15
2023-12-10T17:59:01.652Z,0.23
2023-12-10T18:01:28.250Z,0.28
2023-12-10T18:03:55.012Z,0.37
2023-12-10T18:06:21.612Z,0.25
2023-12-10T18:08:48.218Z,0.48
2023-12-10T18:11:16.940Z,0.41
2023-12-10T18:13:43.594Z,0.63
2023-12-10T18:16:23.696Z,0.68
2023-12-10T18:18:50.518Z,0.71
2023-12-10T18:21:17.617Z,0.71
2023-12-10T18:23:47.824Z,0.74
2023-12-10T18:26:16.537Z,0.69
2023-12-10T18:28:46.270Z,0.86
2023-12-10T18:31:13.602Z,0.87
2023-12-10T18:33:40.586Z,0.89
2023-12-10T18:36:07.855Z,0.60
2023-12-10T18:38:34.531Z,0.99
2023-12-10T18:41:01.510Z,0.99
2023-12-10T18:43:28.995Z,1.04
2023-12-10T18:45:57.074Z,0.99
2023-12-10T18:48:23.933Z,0.96
2023-12-10T18:50:50.694Z,1.02
2023-12-10T18:53:17.360Z,1.10
2023-12-10T18:55:44.700Z,0.96
2023-12-10T18:58:11.679Z,0.81
2023-12-10T19:00:42.351Z,0.73
2023-12-10T19:03:10.345Z,0.51
2023-12-10T19:05:37.124Z,0.42
2023-12-10T19:08:04.032Z,0.35
2023-12-10T19:10:30.712Z,0.29
2023-12-10T19:12:57.400Z,0.20
2023-12-10T19:15:24.152Z,0.33
2023-12-10T19:17:50.795Z,0.28
2023-12-10T19:20:25.108Z,0.20
2023-12-10T19:22:52.528Z,0.27
2023-12-10T19:25:19.851Z,0.28
2023-12-10T19:27:46.455Z,0.16
2023-12-10T19:30:13.544Z,0.08
2023-12-10T19:32:40.153Z,0.03
2023-12-10T19:35:09.526Z,-0.08
2023-12-10T19:37:38.217Z,-0.14
2023-12-10T19:40:06.347Z,-0.10
2023-12-10T19:42:33.250Z,-0.13
2023-12-10T19:44:59.954Z,-0.07
2023-12-10T19:47:26.985Z,-0.24
2023-12-10T19:49:53.721Z,-0.13
2023-12-10T19:52:20.442Z,-0.18
2023-12-10T19:54:47.170Z,-0.47
2023-12-10T19:57:18.225Z,-0.15
2023-12-10T19:59:45.791Z,-0.05
2023-12-10T20:02:12.512Z,-0.06
2023-12-10T20:04:39.303Z,-0.02
2023-12-10T20:07:06.145Z,-0.12
2023-12-10T20:09:32.993Z,-0.20
2023-12-10T20:11:59.630Z,-0.18
2023-12-10T20:14:26.307Z,-0.22
2023-12-10T20:16:54.547Z,-0.29
2023-12-10T20:19:21.617Z,-0.25
2023-12-10T20:21:48.338Z,-0.24
2023-12-10T20:24:26.753Z,-0.35
2023-12-10T20:26:57.670Z,-0.67
2023-12-10T20:29:26.347Z,-0.37
2023-12-10T20:31:52.892Z,-0.38
2023-12-10T20:34:26.995Z,-0.42
2023-12-10T20:36:59.391Z,-0.63
2023-12-10T20:39:26.026Z,-0.50
2023-12-10T20:41:52.574Z,-0.60
2023-12-10T20:44:19.065Z,-0.67
2023-12-10T20:46:45.637Z,-0.64
2023-12-10T20:49:12.261Z,-0.59
2023-12-10T20:51:38.852Z,-0.67
2023-12-10T20:54:05.456Z,-0.74
2023-12-10T20:56:31.943Z,-0.76
2023-12-10T20:58:58.444Z,-0.83
2023-12-10T21:01:28.215Z,-1.06
2023-12-10T21:03:55.042Z,-0.91
2023-12-10T21:06:21.859Z,-0.96
2023-12-10T21:08:48.547Z,-1.18
2023-12-10T21:11:15.291Z,-1.15
2023-12-10T21:13:42.056Z,-0.98
2023-12-10T21:16:11.283Z,-1.05
2023-12-10T21:18:38.623Z,-1.04
2023-12-10T21:21:06.316Z,-1.07
2023-12-10T21:23:34.931Z,-1.11
2023-12-10T21:26:03.956Z,-1.09
2023-12-10T21:28:31.151Z,-1.08
2023-12-10T21:30:58.227Z,-1.04
2023-12-10T21:33:25.148Z,-1.21
2023-12-10T21:35:52.206Z,-1.17
2023-12-10T21:38:18.793Z,-1.14
2023-12-10T21:40:45.301Z,-1.21
2023-12-10T21:43:11.938Z,-1.30
2023-12-10T21:45:38.522Z,-1.34
2023-12-10T21:48:05.880Z,-1.15
2023-12-10T21:50:32.485Z,-1.13
2023-12-10T21:52:59.059Z,-1.02
2023-12-10T21:55:25.634Z,-0.97
2023-12-10T21:57:52.277Z,-0.93
2023-12-10T22:00:19.424Z,-1.26
2023-12-10T22:02:46.867Z,-1.13
2023-12-10T22:05:13.538Z,-0.87
2023-12-10T22:07:40.158Z,-0.90
2023-12-10T22:10:10.277Z,-0.89
2023-12-10T22:12:36.925Z,-0.87
2023-12-10T22:15:04.674Z,-0.95
2023-12-10T22:17:31.642Z,-0.82
2023-12-10T22:19:59.096Z,-0.89
2023-12-10T22:22:28.769Z,-1.26
2023-12-10T22:24:57.042Z,-0.91
2023-12-10T22:27:23.663Z,-0.63
2023-12-10T22:29:51.867Z,-0.52
2023-12-10T22:32:18.468Z,-0.55
2023-12-10T22:34:45.124Z,-0.48
2023-12-10T22:37:11.885Z,-0.56
2023-12-10T22:39:38.481Z,-0.24
2023-12-10T22:42:05.637Z,-0.05
2023-12-10T22:44:32.197Z,-0.03
2023-12-10T22:46:58.705Z,0.03
2023-12-10T22:49:25.306Z,0.20
2023-12-10T22:51:53.310Z,0.28
2023-12-10T22:54:19.912Z,0.37
2023-12-10T22:56:46.544Z,0.45
2023-12-10T22:59:13.198Z,0.55
2023-12-10T23:01:39.831Z,0.27
2023-12-10T23:04:07.356Z,0.16
2023-12-10T23:06:34.117Z,0.38
2023-12-10T23:09:00.713Z,0.48
2023-12-10T23:11:27.297Z,0.55
2023-12-10T23:13:53.821Z,0.37
2023-12-10T23:16:20.364Z,0.34
2023-12-10T23:18:47.037Z,0.49
2023-12-10T23:21:13.575Z,0.49
2023-12-10T23:23:40.704Z,0.62
2023-12-10T23:26:09.977Z,0.68
2023-12-10T23:28:36.530Z,0.51
2023-12-10T23:31:03.395Z,0.61
2023-12-10T23:33:30.240Z,0.61
2023-12-10T23:35:57.151Z,0.55
2023-12-10T23:38:23.642Z,0.55
2023-12-10T23:40:50.156Z,0.56
2023-12-10T23:43:16.715Z,0.57
2023-12-10T23:45:43.248Z,0.44
2023-12-10T23:48:09.893Z,0.44
2023-12-10T23:50:36.534Z,0.40
2023-12-10T23:53:03.163Z,0.29
2023-12-10T23:55:29.722Z,0.17
2023-12-10T23:57:56.308Z,0.16
